sensor_id;sensor_type;location;lat;lon;timestamp;P1;durP1;ratioP1;P2;durP2;ratioP2
67053;SDS011;53960;51.826;5.850;2023-04-20T00:00:42;7.23;;;2.10;;
67053;SDS011;53960;51.826;5.850;2023-04-20T00:03:07;7.60;;;2.13;;
67053;SDS011;53960;51.826;5.850;2023-04-20T00:05:33;7.83;;;2.30;;
67053;SDS011;53960;51.826;5.850;2023-04-20T00:07:58;12.57;;;2.72;;
67053;SDS011;53960;51.826;5.850;2023-04-20T00:10:25;6.20;;;1.90;;
67053;SDS011;53960;51.826;5.850;2023-04-20T00:12:50;6.88;;;2.15;;
67053;SDS011;53960;51.826;5.850;2023-04-20T00:15:16;7.67;;;2.07;;
67053;SDS011;53960;51.826;5.850;2023-04-20T00:17:41;6.77;;;2.43;;
67053;SDS011;53960;51.826;5.850;2023-04-20T00:20:07;8.13;;;2.00;;
67053;SDS011;53960;51.826;5.850;2023-04-20T00:22:34;6.40;;;1.90;;
67053;SDS011;53960;51.826;5.850;2023-04-20T00:24:59;7.37;;;2.00;;
67053;SDS011;53960;51.826;5.850;2023-04-20T00:27:25;8.55;;;2.13;;
67053;SDS011;53960;51.826;5.850;2023-04-20T00:29:50;8.03;;;2.00;;
67053;SDS011;53960;51.826;5.850;2023-04-20T00:32:15;6.93;;;2.10;;
67053;SDS011;53960;51.826;5.850;2023-04-20T00:34:41;6.87;;;2.30;;
67053;SDS011;53960;51.826;5.850;2023-04-20T00:37:06;9.63;;;2.00;;
67053;SDS011;53960;51.826;5.850;2023-04-20T00:39:31;7.53;;;2.10;;
67053;SDS011;53960;51.826;5.850;2023-04-20T00:42:06;7.70;;;2.23;;
67053;SDS011;53960;51.826;5.850;2023-04-20T00:44:32;10.13;;;2.30;;
67053;SDS011;53960;51.826;5.850;2023-04-20T00:46:58;7.47;;;1.87;;
67053;SDS011;53960;51.826;5.850;2023-04-20T00:49:25;7.63;;;2.27;;
67053;SDS011;53960;51.826;5.850;2023-04-20T00:51:54;7.28;;;2.10;;
67053;SDS011;53960;51.826;5.850;2023-04-20T00:54:20;6.80;;;2.03;;
67053;SDS011;53960;51.826;5.850;2023-04-20T00:56:45;6.33;;;1.73;;
67053;SDS011;53960;51.826;5.850;2023-04-20T00:59:11;15.23;;;2.22;;
67053;SDS011;53960;51.826;5.850;2023-04-20T01:01:36;7.40;;;2.20;;
67053;SDS011;53960;51.826;5.850;2023-04-20T01:04:02;7.10;;;2.07;;
67053;SDS011;53960;51.826;5.850;2023-04-20T01:06:27;7.20;;;1.90;;
67053;SDS011;53960;51.826;5.850;2023-04-20T01:08:52;8.23;;;1.90;;
67053;SDS011;53960;51.826;5.850;2023-04-20T01:11:18;6.20;;;1.90;;
67053;SDS011;53960;51.826;5.850;2023-04-20T01:13:43;7.43;;;2.20;;
67053;SDS011;53960;51.826;5.850;2023-04-20T01:16:09;6.82;;;1.80;;
67053;SDS011;53960;51.826;5.850;2023-04-20T01:18:45;5.80;;;1.88;;
67053;SDS011;53960;51.826;5.850;2023-04-20T01:21:12;8.03;;;1.80;;
67053;SDS011;53960;51.826;5.850;2023-04-20T01:23:38;6.70;;;1.95;;
67053;SDS011;53960;51.826;5.850;2023-04-20T01:26:05;7.50;;;2.20;;
67053;SDS011;53960;51.826;5.850;2023-04-20T01:28:31;8.13;;;2.20;;
67053;SDS011;53960;51.826;5.850;2023-04-20T01:30:56;7.80;;;2.10;;
67053;SDS011;53960;51.826;5.850;2023-04-20T01:33:22;5.93;;;1.90;;
67053;SDS011;53960;51.826;5.850;2023-04-20T01:35:47;6.23;;;1.80;;
67053;SDS011;53960;51.826;5.850;2023-04-20T01:38:22;7.63;;;2.17;;
67053;SDS011;53960;51.826;5.850;2023-04-20T01:40:49;8.07;;;2.20;;
67053;SDS011;53960;51.826;5.850;2023-04-20T01:43:14;11.47;;;2.40;;
67053;SDS011;53960;51.826;5.850;2023-04-20T01:45:40;9.10;;;2.15;;
67053;SDS011;53960;51.826;5.850;2023-04-20T01:48:06;7.57;;;2.07;;
67053;SDS011;53960;51.826;5.850;2023-04-20T01:50:31;11.93;;;2.70;;
67053;SDS011;53960;51.826;5.850;2023-04-20T01:52:56;7.10;;;2.30;;
67053;SDS011;53960;51.826;5.850;2023-04-20T01:55:22;8.63;;;2.40;;
67053;SDS011;53960;51.826;5.850;2023-04-20T01:57:47;7.23;;;2.53;;
67053;SDS011;53960;51.826;5.850;2023-04-20T02:00:12;8.37;;;2.17;;
67053;SDS011;53960;51.826;5.850;2023-04-20T02:02:38;9.88;;;2.80;;
67053;SDS011;53960;51.826;5.850;2023-04-20T02:05:04;8.27;;;2.30;;
67053;SDS011;53960;51.826;5.850;2023-04-20T02:07:30;9.30;;;3.27;;
67053;SDS011;53960;51.826;5.850;2023-04-20T02:09:55;7.97;;;2.50;;
67053;SDS011;53960;51.826;5.850;2023-04-20T02:12:20;6.60;;;2.17;;
67053;SDS011;53960;51.826;5.850;2023-04-20T02:14:46;6.87;;;2.30;;
67053;SDS011;53960;51.826;5.850;2023-04-20T02:17:11;7.07;;;2.50;;
67053;SDS011;53960;51.826;5.850;2023-04-20T02:19:37;7.72;;;2.70;;
67053;SDS011;53960;51.826;5.850;2023-04-20T02:22:03;9.10;;;2.60;;
67053;SDS011;53960;51.826;5.850;2023-04-20T02:24:28;7.63;;;2.35;;
67053;SDS011;53960;51.826;5.850;2023-04-20T02:26:53;8.30;;;3.20;;
67053;SDS011;53960;51.826;5.850;2023-04-20T02:29:19;7.83;;;2.50;;
67053;SDS011;53960;51.826;5.850;2023-04-20T02:31:44;9.17;;;2.60;;
67053;SDS011;53960;51.826;5.850;2023-04-20T02:34:09;8.27;;;2.73;;
67053;SDS011;53960;51.826;5.850;2023-04-20T02:36:35;11.13;;;2.60;;
67053;SDS011;53960;51.826;5.850;2023-04-20T02:39:01;12.13;;;2.63;;
67053;SDS011;53960;51.826;5.850;2023-04-20T02:41:26;7.32;;;2.80;;
67053;SDS011;53960;51.826;5.850;2023-04-20T02:43:51;8.40;;;3.10;;
67053;SDS011;53960;51.826;5.850;2023-04-20T02:46:17;6.77;;;2.13;;
67053;SDS011;53960;51.826;5.850;2023-04-20T02:48:42;8.47;;;2.20;;
67053;SDS011;53960;51.826;5.850;2023-04-20T02:51:07;7.90;;;2.60;;
67053;SDS011;53960;51.826;5.850;2023-04-20T02:53:33;8.63;;;2.37;;
67053;SDS011;53960;51.826;5.850;2023-04-20T02:55:58;8.67;;;2.73;;
67053;SDS011;53960;51.826;5.850;2023-04-20T02:58:24;7.20;;;2.53;;
67053;SDS011;53960;51.826;5.850;2023-04-20T03:00:49;8.50;;;2.92;;
67053;SDS011;53960;51.826;5.850;2023-04-20T03:03:14;7.97;;;2.40;;
67053;SDS011;53960;51.826;5.850;2023-04-20T03:05:40;9.00;;;2.40;;
67053;SDS011;53960;51.826;5.850;2023-04-20T03:08:05;7.10;;;2.50;;
67053;SDS011;53960;51.826;5.850;2023-04-20T03:10:31;8.20;;;3.03;;
67053;SDS011;53960;51.826;5.850;2023-04-20T03:12:56;9.30;;;3.00;;
67053;SDS011;53960;51.826;5.850;2023-04-20T03:15:22;10.10;;;3.00;;
67053;SDS011;53960;51.826;5.850;2023-04-20T03:17:47;8.25;;;3.00;;
67053;SDS011;53960;51.826;5.850;2023-04-20T03:20:13;7.23;;;2.73;;
67053;SDS011;53960;51.826;5.850;2023-04-20T03:22:38;8.97;;;2.57;;
67053;SDS011;53960;51.826;5.850;2023-04-20T03:25:04;7.13;;;2.80;;
67053;SDS011;53960;51.826;5.850;2023-04-20T03:27:30;11.23;;;2.72;;
67053;SDS011;53960;51.826;5.850;2023-04-20T03:29:55;8.60;;;3.00;;
67053;SDS011;53960;51.826;5.850;2023-04-20T03:32:21;10.73;;;3.17;;
67053;SDS011;53960;51.826;5.850;2023-04-20T03:34:46;9.77;;;2.70;;
67053;SDS011;53960;51.826;5.850;2023-04-20T03:37:11;7.43;;;2.70;;
67053;SDS011;53960;51.826;5.850;2023-04-20T03:39:37;7.83;;;2.60;;
67053;SDS011;53960;51.826;5.850;2023-04-20T03:42:02;7.77;;;2.83;;
67053;SDS011;53960;51.826;5.850;2023-04-20T03:44:28;7.93;;;2.70;;
67053;SDS011;53960;51.826;5.850;2023-04-20T03:46:53;7.67;;;2.90;;
67053;SDS011;53960;51.826;5.850;2023-04-20T03:49:22;7.43;;;2.97;;
67053;SDS011;53960;51.826;5.850;2023-04-20T03:51:49;7.97;;;3.13;;
67053;SDS011;53960;51.826;5.850;2023-04-20T03:54:14;7.87;;;2.50;;
67053;SDS011;53960;51.826;5.850;2023-04-20T03:56:39;8.00;;;3.13;;
67053;SDS011;53960;51.826;5.850;2023-04-20T03:59:05;9.03;;;2.80;;
67053;SDS011;53960;51.826;5.850;2023-04-20T04:01:30;8.80;;;3.00;;
67053;SDS011;53960;51.826;5.850;2023-04-20T04:03:56;8.20;;;2.70;;
67053;SDS011;53960;51.826;5.850;2023-04-20T04:06:21;7.63;;;2.50;;
67053;SDS011;53960;51.826;5.850;2023-04-20T04:08:47;7.27;;;2.60;;
67053;SDS011;53960;51.826;5.850;2023-04-20T04:11:12;10.07;;;2.93;;
67053;SDS011;53960;51.826;5.850;2023-04-20T04:13:37;7.63;;;2.83;;
67053;SDS011;53960;51.826;5.850;2023-04-20T04:16:03;9.10;;;2.63;;
67053;SDS011;53960;51.826;5.850;2023-04-20T04:18:29;11.90;;;2.80;;
67053;SDS011;53960;51.826;5.850;2023-04-20T04:20:56;8.63;;;3.30;;
67053;SDS011;53960;51.826;5.850;2023-04-20T04:23:22;8.05;;;3.00;;
67053;SDS011;53960;51.826;5.850;2023-04-20T04:25:48;9.02;;;3.00;;
67053;SDS011;53960;51.826;5.850;2023-04-20T04:28:13;8.97;;;3.00;;
67053;SDS011;53960;51.826;5.850;2023-04-20T04:30:39;8.27;;;3.10;;
67053;SDS011;53960;51.826;5.850;2023-04-20T04:33:04;7.85;;;2.40;;
67053;SDS011;53960;51.826;5.850;2023-04-20T04:35:30;9.80;;;2.90;;
67053;SDS011;53960;51.826;5.850;2023-04-20T04:37:57;8.13;;;3.05;;
67053;SDS011;53960;51.826;5.850;2023-04-20T04:40:22;9.50;;;3.30;;
67053;SDS011;53960;51.826;5.850;2023-04-20T04:42:48;9.20;;;3.20;;
67053;SDS011;53960;51.826;5.850;2023-04-20T04:45:13;8.43;;;2.90;;
67053;SDS011;53960;51.826;5.850;2023-04-20T04:47:39;9.50;;;2.95;;
67053;SDS011;53960;51.826;5.850;2023-04-20T04:50:07;8.13;;;2.87;;
67053;SDS011;53960;51.826;5.850;2023-04-20T04:52:34;8.85;;;2.83;;
67053;SDS011;53960;51.826;5.850;2023-04-20T04:55:00;7.78;;;3.03;;
67053;SDS011;53960;51.826;5.850;2023-04-20T04:57:26;8.75;;;3.10;;
67053;SDS011;53960;51.826;5.850;2023-04-20T04:59:52;8.97;;;3.63;;
67053;SDS011;53960;51.826;5.850;2023-04-20T05:02:18;11.02;;;3.75;;
67053;SDS011;53960;51.826;5.850;2023-04-20T05:04:43;9.07;;;2.90;;
67053;SDS011;53960;51.826;5.850;2023-04-20T05:07:08;8.77;;;3.30;;
67053;SDS011;53960;51.826;5.850;2023-04-20T05:09:38;8.45;;;3.13;;
67053;SDS011;53960;51.826;5.850;2023-04-20T05:12:03;7.23;;;2.83;;
67053;SDS011;53960;51.826;5.850;2023-04-20T05:14:30;8.18;;;2.85;;
67053;SDS011;53960;51.826;5.850;2023-04-20T05:16:56;8.73;;;3.45;;
67053;SDS011;53960;51.826;5.850;2023-04-20T05:19:22;8.35;;;2.83;;
67053;SDS011;53960;51.826;5.850;2023-04-20T05:21:47;11.30;;;3.30;;
67053;SDS011;53960;51.826;5.850;2023-04-20T05:24:13;8.80;;;3.50;;
67053;SDS011;53960;51.826;5.850;2023-04-20T05:26:38;8.70;;;3.10;;
67053;SDS011;53960;51.826;5.850;2023-04-20T05:29:03;10.03;;;3.23;;
67053;SDS011;53960;51.826;5.850;2023-04-20T05:31:28;10.27;;;3.13;;
67053;SDS011;53960;51.826;5.850;2023-04-20T05:33:57;8.70;;;3.20;;
67053;SDS011;53960;51.826;5.850;2023-04-20T05:36:23;9.93;;;3.63;;
67053;SDS011;53960;51.826;5.850;2023-04-20T05:38:48;11.30;;;3.17;;
67053;SDS011;53960;51.826;5.850;2023-04-20T05:41:13;9.97;;;4.13;;
67053;SDS011;53960;51.826;5.850;2023-04-20T05:43:39;8.43;;;3.60;;
67053;SDS011;53960;51.826;5.850;2023-04-20T05:46:04;7.63;;;2.90;;
67053;SDS011;53960;51.826;5.850;2023-04-20T05:48:30;8.50;;;2.93;;
67053;SDS011;53960;51.826;5.850;2023-04-20T05:50:55;8.25;;;3.13;;
67053;SDS011;53960;51.826;5.850;2023-04-20T05:53:21;9.27;;;3.70;;
67053;SDS011;53960;51.826;5.850;2023-04-20T05:55:46;9.57;;;3.40;;
67053;SDS011;53960;51.826;5.850;2023-04-20T05:58:11;9.20;;;3.43;;
67053;SDS011;53960;51.826;5.850;2023-04-20T06:00:37;11.73;;;3.30;;
67053;SDS011;53960;51.826;5.850;2023-04-20T06:03:02;9.80;;;2.87;;
67053;SDS011;53960;51.826;5.850;2023-04-20T06:05:27;9.73;;;3.75;;
67053;SDS011;53960;51.826;5.850;2023-04-20T06:07:53;10.43;;;3.40;;
67053;SDS011;53960;51.826;5.850;2023-04-20T06:10:18;9.87;;;3.30;;
67053;SDS011;53960;51.826;5.850;2023-04-20T06:12:43;8.80;;;3.37;;
67053;SDS011;53960;51.826;5.850;2023-04-20T06:15:09;8.10;;;3.17;;
67053;SDS011;53960;51.826;5.850;2023-04-20T06:17:35;10.18;;;3.22;;
67053;SDS011;53960;51.826;5.850;2023-04-20T06:20:03;8.33;;;3.10;;
67053;SDS011;53960;51.826;5.850;2023-04-20T06:22:30;9.35;;;3.88;;
67053;SDS011;53960;51.826;5.850;2023-04-20T06:24:55;10.87;;;2.93;;
67053;SDS011;53960;51.826;5.850;2023-04-20T06:27:20;8.33;;;2.83;;
67053;SDS011;53960;51.826;5.850;2023-04-20T06:29:45;9.30;;;3.00;;
67053;SDS011;53960;51.826;5.850;2023-04-20T06:32:11;10.50;;;3.07;;
67053;SDS011;53960;51.826;5.850;2023-04-20T06:34:36;8.60;;;3.00;;
67053;SDS011;53960;51.826;5.850;2023-04-20T06:37:01;8.07;;;2.93;;
67053;SDS011;53960;51.826;5.850;2023-04-20T06:39:29;8.25;;;2.90;;
67053;SDS011;53960;51.826;5.850;2023-04-20T06:41:55;11.43;;;3.53;;
67053;SDS011;53960;51.826;5.850;2023-04-20T06:44:20;8.57;;;3.37;;
67053;SDS011;53960;51.826;5.850;2023-04-20T06:46:46;10.30;;;3.30;;
67053;SDS011;53960;51.826;5.850;2023-04-20T06:49:11;10.80;;;3.77;;
67053;SDS011;53960;51.826;5.850;2023-04-20T06:51:36;9.45;;;3.20;;
67053;SDS011;53960;51.826;5.850;2023-04-20T06:54:03;9.17;;;3.40;;
67053;SDS011;53960;51.826;5.850;2023-04-20T06:56:28;10.03;;;3.90;;
67053;SDS011;53960;51.826;5.850;2023-04-20T06:58:53;10.57;;;3.33;;
67053;SDS011;53960;51.826;5.850;2023-04-20T07:01:18;8.10;;;3.03;;
67053;SDS011;53960;51.826;5.850;2023-04-20T07:03:44;9.90;;;3.53;;
67053;SDS011;53960;51.826;5.850;2023-04-20T07:06:10;9.77;;;3.70;;
67053;SDS011;53960;51.826;5.850;2023-04-20T07:08:36;10.47;;;3.10;;
67053;SDS011;53960;51.826;5.850;2023-04-20T07:11:03;10.38;;;3.08;;
67053;SDS011;53960;51.826;5.850;2023-04-20T07:13:31;11.10;;;3.60;;
67053;SDS011;53960;51.826;5.850;2023-04-20T07:15:57;8.18;;;3.25;;
67053;SDS011;53960;51.826;5.850;2023-04-20T07:18:22;9.17;;;3.40;;
67053;SDS011;53960;51.826;5.850;2023-04-20T07:20:47;9.83;;;3.70;;
67053;SDS011;53960;51.826;5.850;2023-04-20T07:23:12;7.83;;;3.20;;
67053;SDS011;53960;51.826;5.850;2023-04-20T07:25:38;9.77;;;3.60;;
67053;SDS011;53960;51.826;5.850;2023-04-20T07:28:04;11.40;;;3.27;;
67053;SDS011;53960;51.826;5.850;2023-04-20T07:30:29;9.20;;;3.43;;
67053;SDS011;53960;51.826;5.850;2023-04-20T07:32:55;9.50;;;3.72;;
67053;SDS011;53960;51.826;5.850;2023-04-20T07:35:21;9.03;;;3.73;;
67053;SDS011;53960;51.826;5.850;2023-04-20T07:37:46;9.15;;;3.40;;
67053;SDS011;53960;51.826;5.850;2023-04-20T07:40:12;9.00;;;3.47;;
67053;SDS011;53960;51.826;5.850;2023-04-20T07:42:37;11.60;;;3.90;;
67053;SDS011;53960;51.826;5.850;2023-04-20T07:45:03;9.93;;;3.83;;
67053;SDS011;53960;51.826;5.850;2023-04-20T07:47:29;9.23;;;3.80;;
67053;SDS011;53960;51.826;5.850;2023-04-20T07:49:55;10.67;;;3.87;;
67053;SDS011;53960;51.826;5.850;2023-04-20T07:52:21;10.82;;;3.92;;
67053;SDS011;53960;51.826;5.850;2023-04-20T07:54:47;9.15;;;3.80;;
67053;SDS011;53960;51.826;5.850;2023-04-20T07:57:12;8.80;;;3.77;;
67053;SDS011;53960;51.826;5.850;2023-04-20T07:59:38;8.80;;;3.40;;
67053;SDS011;53960;51.826;5.850;2023-04-20T08:02:05;8.80;;;3.88;;
67053;SDS011;53960;51.826;5.850;2023-04-20T08:04:30;9.80;;;3.88;;
67053;SDS011;53960;51.826;5.850;2023-04-20T08:06:56;9.10;;;3.50;;
67053;SDS011;53960;51.826;5.850;2023-04-20T08:09:21;8.83;;;3.57;;
67053;SDS011;53960;51.826;5.850;2023-04-20T08:11:46;8.77;;;3.83;;
67053;SDS011;53960;51.826;5.850;2023-04-20T08:14:13;9.10;;;3.90;;
67053;SDS011;53960;51.826;5.850;2023-04-20T08:16:38;9.90;;;4.22;;
67053;SDS011;53960;51.826;5.850;2023-04-20T08:19:04;11.80;;;3.90;;
67053;SDS011;53960;51.826;5.850;2023-04-20T08:21:34;11.15;;;3.78;;
67053;SDS011;53960;51.826;5.850;2023-04-20T08:24:00;11.07;;;3.60;;
67053;SDS011;53960;51.826;5.850;2023-04-20T08:26:26;9.15;;;3.58;;
67053;SDS011;53960;51.826;5.850;2023-04-20T08:28:51;8.47;;;3.60;;
67053;SDS011;53960;51.826;5.850;2023-04-20T08:31:17;9.70;;;3.40;;
67053;SDS011;53960;51.826;5.850;2023-04-20T08:33:42;8.50;;;3.10;;
67053;SDS011;53960;51.826;5.850;2023-04-20T08:36:07;9.00;;;3.17;;
67053;SDS011;53960;51.826;5.850;2023-04-20T08:38:33;9.67;;;3.50;;
67053;SDS011;53960;51.826;5.850;2023-04-20T08:40:58;7.67;;;3.17;;
67053;SDS011;53960;51.826;5.850;2023-04-20T08:43:23;8.73;;;3.47;;
67053;SDS011;53960;51.826;5.850;2023-04-20T08:45:49;8.20;;;3.20;;
67053;SDS011;53960;51.826;5.850;2023-04-20T08:48:15;8.57;;;3.20;;
67053;SDS011;53960;51.826;5.850;2023-04-20T08:50:43;8.32;;;3.00;;
67053;SDS011;53960;51.826;5.850;2023-04-20T08:53:09;7.40;;;2.83;;
67053;SDS011;53960;51.826;5.850;2023-04-20T08:55:34;7.73;;;3.10;;
67053;SDS011;53960;51.826;5.850;2023-04-20T08:57:59;8.32;;;3.53;;
67053;SDS011;53960;51.826;5.850;2023-04-20T09:00:25;7.77;;;2.90;;
67053;SDS011;53960;51.826;5.850;2023-04-20T09:02:51;9.93;;;3.27;;
67053;SDS011;53960;51.826;5.850;2023-04-20T09:05:27;10.40;;;3.13;;
67053;SDS011;53960;51.826;5.850;2023-04-20T09:07:55;9.13;;;3.15;;
67053;SDS011;53960;51.826;5.850;2023-04-20T09:10:24;8.23;;;3.40;;
67053;SDS011;53960;51.826;5.850;2023-04-20T09:12:50;11.00;;;3.28;;
67053;SDS011;53960;51.826;5.850;2023-04-20T09:15:50;9.63;;;4.10;;
67053;SDS011;53960;51.826;5.850;2023-04-20T09:18:11;8.02;;;3.40;;
67053;SDS011;53960;51.826;5.850;2023-04-20T09:20:38;10.65;;;3.65;;
67053;SDS011;53960;51.826;5.850;2023-04-20T09:23:13;9.20;;;3.40;;
67053;SDS011;53960;51.826;5.850;2023-04-20T09:25:40;9.35;;;3.60;;
67053;SDS011;53960;51.826;5.850;2023-04-20T09:28:07;8.50;;;3.40;;
67053;SDS011;53960;51.826;5.850;2023-04-20T09:30:39;8.45;;;3.33;;
67053;SDS011;53960;51.826;5.850;2023-04-20T09:33:15;11.20;;;3.88;;
67053;SDS011;53960;51.826;5.850;2023-04-20T09:35:41;8.80;;;3.20;;
67053;SDS011;53960;51.826;5.850;2023-04-20T09:38:08;9.88;;;3.40;;
67053;SDS011;53960;51.826;5.850;2023-04-20T09:40:34;9.30;;;3.60;;
67053;SDS011;53960;51.826;5.850;2023-04-20T09:43:08;9.43;;;3.47;;
67053;SDS011;53960;51.826;5.850;2023-04-20T09:45:36;8.73;;;3.77;;
67053;SDS011;53960;51.826;5.850;2023-04-20T09:48:05;8.85;;;3.35;;
67053;SDS011;53960;51.826;5.850;2023-04-20T09:50:31;8.18;;;3.58;;
67053;SDS011;53960;51.826;5.850;2023-04-20T09:53:01;9.02;;;3.60;;
67053;SDS011;53960;51.826;5.850;2023-04-20T09:55:26;9.10;;;3.30;;
67053;SDS011;53960;51.826;5.850;2023-04-20T09:57:54;8.75;;;3.63;;
67053;SDS011;53960;51.826;5.850;2023-04-20T10:00:20;10.90;;;3.60;;
67053;SDS011;53960;51.826;5.850;2023-04-20T10:02:46;8.77;;;3.60;;
67053;SDS011;53960;51.826;5.850;2023-04-20T10:05:12;8.77;;;3.13;;
67053;SDS011;53960;51.826;5.850;2023-04-20T10:07:37;8.98;;;3.47;;
67053;SDS011;53960;51.826;5.850;2023-04-20T10:10:06;10.00;;;3.27;;
67053;SDS011;53960;51.826;5.850;2023-04-20T10:15:37;9.23;;;3.40;;
67053;SDS011;53960;51.826;5.850;2023-04-20T10:18:22;8.63;;;3.65;;
67053;SDS011;53960;51.826;5.850;2023-04-20T10:20:48;8.43;;;3.42;;
67053;SDS011;53960;51.826;5.850;2023-04-20T10:23:14;10.17;;;3.70;;
67053;SDS011;53960;51.826;5.850;2023-04-20T10:25:40;10.68;;;3.90;;
67053;SDS011;53960;51.826;5.850;2023-04-20T10:28:06;8.85;;;3.50;;
67053;SDS011;53960;51.826;5.850;2023-04-20T10:30:35;9.10;;;3.45;;
67053;SDS011;53960;51.826;5.850;2023-04-20T10:33:02;9.25;;;4.00;;
67053;SDS011;53960;51.826;5.850;2023-04-20T10:35:28;9.20;;;3.60;;
67053;SDS011;53960;51.826;5.850;2023-04-20T10:37:54;8.77;;;3.83;;
67053;SDS011;53960;51.826;5.850;2023-04-20T10:40:25;8.65;;;3.40;;
67053;SDS011;53960;51.826;5.850;2023-04-20T10:42:51;9.07;;;3.60;;
67053;SDS011;53960;51.826;5.850;2023-04-20T10:45:16;9.98;;;3.63;;
67053;SDS011;53960;51.826;5.850;2023-04-20T10:47:42;8.43;;;3.40;;
67053;SDS011;53960;51.826;5.850;2023-04-20T10:50:09;8.52;;;3.70;;
67053;SDS011;53960;51.826;5.850;2023-04-20T10:52:37;9.35;;;3.78;;
67053;SDS011;53960;51.826;5.850;2023-04-20T10:55:05;8.73;;;3.83;;
67053;SDS011;53960;51.826;5.850;2023-04-20T10:57:43;10.35;;;4.32;;
67053;SDS011;53960;51.826;5.850;2023-04-20T11:00:13;9.70;;;4.00;;
67053;SDS011;53960;51.826;5.850;2023-04-20T11:02:46;8.70;;;3.58;;
67053;SDS011;53960;51.826;5.850;2023-04-20T11:05:13;10.60;;;3.80;;
67053;SDS011;53960;51.826;5.850;2023-04-20T11:08:12;8.90;;;4.00;;
67053;SDS011;53960;51.826;5.850;2023-04-20T11:10:40;10.68;;;3.67;;
67053;SDS011;53960;51.826;5.850;2023-04-20T11:13:06;9.82;;;3.95;;
67053;SDS011;53960;51.826;5.850;2023-04-20T11:15:43;10.63;;;4.43;;
67053;SDS011;53960;51.826;5.850;2023-04-20T11:18:09;8.80;;;3.63;;
67053;SDS011;53960;51.826;5.850;2023-04-20T11:20:36;9.68;;;3.60;;
67053;SDS011;53960;51.826;5.850;2023-04-20T11:23:02;9.27;;;3.92;;
67053;SDS011;53960;51.826;5.850;2023-04-20T11:25:29;9.67;;;4.20;;
67053;SDS011;53960;51.826;5.850;2023-04-20T11:28:08;9.38;;;3.70;;
67053;SDS011;53960;51.826;5.850;2023-04-20T11:30:38;8.15;;;3.70;;
67053;SDS011;53960;51.826;5.850;2023-04-20T11:33:05;9.60;;;3.83;;
67053;SDS011;53960;51.826;5.850;2023-04-20T11:35:34;9.80;;;4.23;;
67053;SDS011;53960;51.826;5.850;2023-04-20T11:38:01;10.10;;;4.10;;
67053;SDS011;53960;51.826;5.850;2023-04-20T11:40:27;9.70;;;4.03;;
67053;SDS011;53960;51.826;5.850;2023-04-20T11:42:52;10.20;;;4.70;;
67053;SDS011;53960;51.826;5.850;2023-04-20T11:45:17;10.43;;;4.57;;
67053;SDS011;53960;51.826;5.850;2023-04-20T11:47:42;9.37;;;3.90;;
67053;SDS011;53960;51.826;5.850;2023-04-20T11:50:09;10.27;;;4.25;;
67053;SDS011;53960;51.826;5.850;2023-04-20T11:52:35;9.20;;;4.40;;
67053;SDS011;53960;51.826;5.850;2023-04-20T11:55:01;10.77;;;4.27;;
67053;SDS011;53960;51.826;5.850;2023-04-20T11:57:26;10.80;;;4.27;;
67053;SDS011;53960;51.826;5.850;2023-04-20T11:59:51;8.70;;;4.20;;
67053;SDS011;53960;51.826;5.850;2023-04-20T12:02:16;9.00;;;4.07;;
67053;SDS011;53960;51.826;5.850;2023-04-20T12:04:42;9.60;;;4.22;;
67053;SDS011;53960;51.826;5.850;2023-04-20T12:07:07;9.97;;;4.30;;
67053;SDS011;53960;51.826;5.850;2023-04-20T12:09:33;10.30;;;4.20;;
67053;SDS011;53960;51.826;5.850;2023-04-20T12:12:01;10.20;;;4.15;;
67053;SDS011;53960;51.826;5.850;2023-04-20T12:14:27;9.00;;;4.28;;
67053;SDS011;53960;51.826;5.850;2023-04-20T12:16:53;13.33;;;4.63;;
67053;SDS011;53960;51.826;5.850;2023-04-20T12:19:18;10.23;;;4.50;;
67053;SDS011;53960;51.826;5.850;2023-04-20T12:21:44;11.17;;;4.50;;
67053;SDS011;53960;51.826;5.850;2023-04-20T12:24:11;9.55;;;4.30;;
67053;SDS011;53960;51.826;5.850;2023-04-20T12:26:37;10.97;;;4.40;;
67053;SDS011;53960;51.826;5.850;2023-04-20T12:29:02;9.47;;;4.43;;
67053;SDS011;53960;51.826;5.850;2023-04-20T12:31:27;10.13;;;4.55;;
67053;SDS011;53960;51.826;5.850;2023-04-20T12:33:53;10.93;;;4.20;;
67053;SDS011;53960;51.826;5.850;2023-04-20T12:36:18;9.00;;;4.40;;
67053;SDS011;53960;51.826;5.850;2023-04-20T12:38:43;9.83;;;4.53;;
67053;SDS011;53960;51.826;5.850;2023-04-20T12:41:12;11.80;;;4.73;;
67053;SDS011;53960;51.826;5.850;2023-04-20T12:43:38;10.13;;;4.13;;
67053;SDS011;53960;51.826;5.850;2023-04-20T12:46:04;9.80;;;4.67;;
67053;SDS011;53960;51.826;5.850;2023-04-20T12:48:29;9.20;;;4.57;;
67053;SDS011;53960;51.826;5.850;2023-04-20T12:50:55;10.70;;;4.73;;
67053;SDS011;53960;51.826;5.850;2023-04-20T12:53:20;10.88;;;4.65;;
67053;SDS011;53960;51.826;5.850;2023-04-20T12:55:45;11.27;;;4.90;;
67053;SDS011;53960;51.826;5.850;2023-04-20T12:58:10;11.10;;;4.90;;
67053;SDS011;53960;51.826;5.850;2023-04-20T13:00:36;11.13;;;5.57;;
67053;SDS011;53960;51.826;5.850;2023-04-20T13:03:02;9.68;;;4.43;;
67053;SDS011;53960;51.826;5.850;2023-04-20T13:05:27;10.17;;;4.87;;
67053;SDS011;53960;51.826;5.850;2023-04-20T13:07:53;10.15;;;5.28;;
67053;SDS011;53960;51.826;5.850;2023-04-20T13:10:18;10.73;;;4.67;;
67053;SDS011;53960;51.826;5.850;2023-04-20T13:12:44;10.87;;;4.97;;
67053;SDS011;53960;51.826;5.850;2023-04-20T13:15:09;9.70;;;4.80;;
67053;SDS011;53960;51.826;5.850;2023-04-20T13:17:35;10.67;;;4.73;;
67053;SDS011;53960;51.826;5.850;2023-04-20T13:20:00;10.02;;;5.10;;
67053;SDS011;53960;51.826;5.850;2023-04-20T13:22:26;10.80;;;5.07;;
67053;SDS011;53960;51.826;5.850;2023-04-20T13:24:51;10.27;;;4.83;;
67053;SDS011;53960;51.826;5.850;2023-04-20T13:27:16;10.60;;;5.15;;
67053;SDS011;53960;51.826;5.850;2023-04-20T13:29:42;10.73;;;5.70;;
67053;SDS011;53960;51.826;5.850;2023-04-20T13:32:08;10.43;;;5.40;;
67053;SDS011;53960;51.826;5.850;2023-04-20T13:34:34;9.27;;;4.85;;
67053;SDS011;53960;51.826;5.850;2023-04-20T13:36:59;10.70;;;5.67;;
67053;SDS011;53960;51.826;5.850;2023-04-20T13:39:24;11.23;;;5.50;;
67053;SDS011;53960;51.826;5.850;2023-04-20T13:41:51;9.20;;;5.25;;
67053;SDS011;53960;51.826;5.850;2023-04-20T13:44:17;11.43;;;5.10;;
67053;SDS011;53960;51.826;5.850;2023-04-20T13:46:42;9.40;;;5.20;;
67053;SDS011;53960;51.826;5.850;2023-04-20T13:49:09;11.00;;;4.97;;
67053;SDS011;53960;51.826;5.850;2023-04-20T13:51:35;11.00;;;5.50;;
67053;SDS011;53960;51.826;5.850;2023-04-20T13:54:00;9.00;;;5.37;;
67053;SDS011;53960;51.826;5.850;2023-04-20T13:56:26;11.07;;;4.77;;
67053;SDS011;53960;51.826;5.850;2023-04-20T13:58:51;12.82;;;5.15;;
67053;SDS011;53960;51.826;5.850;2023-04-20T14:01:17;11.53;;;5.37;;
67053;SDS011;53960;51.826;5.850;2023-04-20T14:03:42;9.73;;;5.00;;
67053;SDS011;53960;51.826;5.850;2023-04-20T14:06:07;13.00;;;5.10;;
67053;SDS011;53960;51.826;5.850;2023-04-20T14:08:33;9.75;;;4.65;;
67053;SDS011;53960;51.826;5.850;2023-04-20T14:10:58;9.57;;;4.87;;
67053;SDS011;53960;51.826;5.850;2023-04-20T14:13:24;11.97;;;5.23;;
67053;SDS011;53960;51.826;5.850;2023-04-20T14:15:49;15.70;;;5.47;;
67053;SDS011;53960;51.826;5.850;2023-04-20T14:18:16;9.95;;;5.20;;
67053;SDS011;53960;51.826;5.850;2023-04-20T14:20:41;10.75;;;5.15;;
67053;SDS011;53960;51.826;5.850;2023-04-20T14:23:06;9.53;;;5.23;;
67053;SDS011;53960;51.826;5.850;2023-04-20T14:25:32;10.17;;;5.10;;
67053;SDS011;53960;51.826;5.850;2023-04-20T14:27:57;10.37;;;4.90;;
67053;SDS011;53960;51.826;5.850;2023-04-20T14:30:22;10.30;;;5.40;;
67053;SDS011;53960;51.826;5.850;2023-04-20T14:32:52;9.32;;;5.10;;
67053;SDS011;53960;51.826;5.850;2023-04-20T14:35:22;9.60;;;4.60;;
67053;SDS011;53960;51.826;5.850;2023-04-20T14:37:48;9.93;;;4.93;;
67053;SDS011;53960;51.826;5.850;2023-04-20T14:40:13;9.97;;;5.13;;